createdAt,value
2022-08-19T00:04:22.642Z,45.51
2022-08-19T00:09:20.089Z,47.40
2022-08-19T00:14:17.377Z,48.11
2022-08-19T00:19:15.168Z,49.02
2022-08-19T00:24:13.296Z,49.79
2022-08-19T00:29:12.007Z,50.02
2022-08-19T00:34:08.711Z,50.17
2022-08-19T00:39:06.147Z,50.80
2022-08-19T00:44:04.725Z,51.25
2022-08-19T00:49:03.059Z,51.36
2022-08-19T00:54:01.249Z,52.06
2022-08-19T00:59:02.354Z,52.85
2022-08-19T01:03:59.206Z,52.34
2022-08-19T01:08:56.168Z,51.06
2022-08-19T01:13:54.034Z,49.55
2022-08-19T01:18:51.624Z,48.05
2022-08-19T01:23:49.036Z,47.33
2022-08-19T01:28:46.650Z,48.76
2022-08-19T01:33:43.412Z,49.36
2022-08-19T01:38:44.445Z,50.08
2022-08-19T01:44:13.608Z,49.72
2022-08-19T01:48:59.203Z,50.14
2022-08-19T01:53:55.841Z,50.24
2022-08-19T01:58:54.959Z,51.83
2022-08-19T02:03:52.285Z,57.10
2022-08-19T02:08:53.537Z,58.24
2022-08-19T02:13:55.239Z,57.15
2022-08-19T02:18:52.172Z,56.18
2022-08-19T02:23:49.260Z,56.09
2022-08-19T02:28:46.153Z,55.55
2022-08-19T02:33:43.792Z,55.00
2022-08-19T02:38:41.082Z,55.50
2022-08-19T02:43:38.991Z,54.51
2022-08-19T02:48:35.711Z,53.79
2022-08-19T02:53:32.962Z,53.50
2022-08-19T02:58:29.907Z,53.29
2022-08-19T03:03:27.248Z,53.89
2022-08-19T03:08:24.524Z,54.30
2022-08-19T03:13:21.855Z,53.75
2022-08-19T03:18:18.484Z,52.14
2022-08-19T03:23:16.578Z,51.99
2022-08-19T03:28:14.062Z,53.91
2022-08-19T03:33:12.056Z,54.29
2022-08-19T03:38:15.105Z,54.41
2022-08-19T03:43:11.734Z,54.45
2022-08-19T03:48:08.903Z,54.61
2022-08-19T03:53:06.748Z,55.69
2022-08-19T03:58:03.415Z,59.29
2022-08-19T04:03:01.093Z,60.43
2022-08-19T04:07:59.270Z,60.26
2022-08-19T04:12:56.636Z,59.87
2022-08-19T04:17:53.555Z,58.08
2022-08-19T04:22:50.271Z,56.95
2022-08-19T04:27:47.338Z,56.26
2022-08-19T04:32:44.713Z,55.66
2022-08-19T04:37:41.368Z,54.67
2022-08-19T04:42:40.800Z,53.04
2022-08-19T04:47:48.189Z,52.56
2022-08-19T04:52:55.864Z,52.51
2022-08-19T04:57:52.680Z,52.16
2022-08-19T05:02:49.581Z,51.78
2022-08-19T05:07:46.299Z,51.98
2022-08-19T05:12:43.703Z,52.81
2022-08-19T05:18:00.990Z,53.42
2022-08-19T05:22:57.680Z,53.73
2022-08-19T05:27:58.054Z,54.29
2022-08-19T05:32:56.251Z,54.25
2022-08-19T05:37:59.134Z,54.62
2022-08-19T05:42:59.380Z,58.08
2022-08-19T05:47:58.316Z,60.34
2022-08-19T05:52:55.146Z,62.40
2022-08-19T05:57:51.996Z,62.72
2022-08-19T06:02:49.730Z,61.00
2022-08-19T06:07:47.451Z,58.32
2022-08-19T06:12:47.137Z,56.74
2022-08-19T06:17:45.052Z,57.27
2022-08-19T06:22:43.234Z,56.95
2022-08-19T06:32:59.956Z,55.29
2022-08-19T06:37:57.616Z,54.48
2022-08-19T06:42:57.048Z,54.15
2022-08-19T06:47:54.786Z,53.41
2022-08-19T06:52:51.817Z,53.02
2022-08-19T06:57:51.458Z,52.41
2022-08-19T07:02:54.335Z,51.34
2022-08-19T07:07:54.484Z,50.79
2022-08-19T07:12:55.865Z,51.51
2022-08-19T07:17:52.920Z,50.86
2022-08-19T07:22:52.108Z,50.63
2022-08-19T07:27:54.389Z,48.08
2022-08-19T07:32:53.197Z,48.48
2022-08-19T07:37:50.288Z,46.94
2022-08-19T07:42:47.028Z,46.91
2022-08-19T07:47:47.989Z,46.23
2022-08-19T07:52:49.876Z,46.66
2022-08-19T07:57:46.725Z,47.09
2022-08-19T08:02:43.570Z,47.59
2022-08-19T08:07:58.571Z,47.25
2022-08-19T08:13:09.962Z,45.54
2022-08-19T08:18:08.071Z,46.36
2022-08-19T08:23:25.450Z,46.32
2022-08-19T08:28:23.454Z,46.64
2022-08-19T08:33:34.261Z,45.92
2022-08-19T08:38:38.793Z,45.27
2022-08-19T08:43:38.987Z,44.88
2022-08-19T08:48:39.064Z,44.09
2022-08-19T08:53:43.145Z,43.90
2022-08-19T08:58:54.279Z,43.36
2022-08-19T09:03:54.872Z,43.08
2022-08-19T09:08:56.738Z,42.03
2022-08-19T09:14:00.841Z,41.75
2022-08-19T09:19:02.002Z,42.31
2022-08-19T09:23:59.705Z,40.90
2022-08-19T09:28:58.615Z,40.84
2022-08-19T09:33:57.697Z,41.41
2022-08-19T09:38:54.516Z,40.57
2022-08-19T09:43:53.162Z,39.71
2022-08-19T09:48:53.140Z,39.59
2022-08-19T09:53:51.324Z,39.53
2022-08-19T09:58:50.270Z,39.69
2022-08-19T10:03:53.321Z,39.76
2022-08-19T10:08:55.835Z,39.66
2022-08-19T10:13:53.167Z,38.85
2022-08-19T10:18:50.371Z,39.03
2022-08-19T10:24:00.869Z,38.80
2022-08-19T10:28:58.037Z,38.87
2022-08-19T10:34:27.597Z,38.50
2022-08-19T10:39:44.507Z,37.86
2022-08-19T10:44:43.488Z,37.57
2022-08-19T10:49:54.823Z,37.70
2022-08-19T10:55:12.555Z,37.85
2022-08-19T11:00:15.028Z,37.32
2022-08-19T11:05:12.521Z,37.56
2022-08-19T11:10:13.243Z,37.77
2022-08-19T11:15:20.385Z,37.18
2022-08-19T11:20:17.406Z,36.55
2022-08-19T11:25:14.325Z,36.17
2022-08-19T11:30:13.538Z,35.88
2022-08-19T11:35:12.000Z,35.53
2022-08-19T11:40:12.106Z,35.97
2022-08-19T11:45:11.666Z,35.87
2022-08-19T11:50:08.654Z,35.79
2022-08-19T11:55:10.114Z,35.34
2022-08-19T12:00:08.139Z,35.34
2022-08-19T12:05:10.229Z,35.09
2022-08-19T12:10:10.822Z,34.92
2022-08-19T12:15:09.233Z,33.44
2022-08-19T12:20:06.817Z,34.12
2022-08-19T12:25:05.293Z,33.84
2022-08-19T12:30:02.985Z,34.05
2022-08-19T12:34:59.878Z,33.74
2022-08-19T12:39:58.813Z,33.47
2022-08-19T12:44:55.677Z,34.49
2022-08-19T12:49:55.920Z,34.18
2022-08-19T12:54:53.844Z,35.26
2022-08-19T12:59:53.610Z,34.57
2022-08-19T13:04:54.247Z,33.64
2022-08-19T13:09:54.704Z,33.02
2022-08-19T13:14:52.430Z,33.34
2022-08-19T13:19:49.558Z,33.70
2022-08-19T13:24:47.671Z,33.77
2022-08-19T13:30:02.917Z,33.97
2022-08-19T13:35:00.143Z,33.37
2022-08-19T13:39:57.669Z,33.01
2022-08-19T13:44:54.916Z,32.43
2022-08-19T13:49:52.077Z,32.12
2022-08-19T13:54:51.426Z,31.48
2022-08-19T13:59:51.616Z,31.39
2022-08-19T14:04:48.590Z,31.50
2022-08-19T14:09:45.557Z,31.30
2022-08-19T14:14:44.568Z,31.58
2022-08-19T14:19:42.246Z,31.65
2022-08-19T14:24:48.113Z,31.69
2022-08-19T14:29:48.552Z,30.92
2022-08-19T14:34:46.546Z,31.33
2022-08-19T14:39:43.576Z,31.73
2022-08-19T14:44:40.524Z,31.62
2022-08-19T14:49:43.120Z,31.88
2022-08-19T14:54:47.638Z,31.93
2022-08-19T14:59:44.788Z,32.15
2022-08-19T15:04:41.622Z,31.66
2022-08-19T15:09:38.528Z,31.62
2022-08-19T15:14:38.406Z,31.76
2022-08-19T15:19:36.498Z,31.08
2022-08-19T15:24:33.461Z,30.89
2022-08-19T15:29:35.794Z,29.94
2022-08-19T15:34:33.500Z,30.33
2022-08-19T15:39:30.815Z,30.14
2022-08-19T15:44:30.797Z,29.27
2022-08-19T15:49:27.806Z,29.48
2022-08-19T15:54:25.646Z,30.35
2022-08-19T15:59:40.882Z,30.40
2022-08-19T16:05:02.621Z,30.54
2022-08-19T16:10:00.150Z,30.73
2022-08-19T16:15:17.743Z,30.19
2022-08-19T16:20:15.590Z,30.32
2022-08-19T16:25:15.551Z,30.74
2022-08-19T16:30:12.630Z,30.42
2022-08-19T16:35:10.142Z,30.84
2022-08-19T16:40:09.012Z,30.50
2022-08-19T16:45:08.780Z,30.64
2022-08-19T16:50:07.300Z,30.82
2022-08-19T16:55:05.416Z,30.43
2022-08-19T17:00:04.349Z,30.76
2022-08-19T17:05:02.689Z,30.88
2022-08-19T17:10:02.582Z,30.80
2022-08-19T17:15:00.095Z,31.11
2022-08-19T17:19:59.818Z,30.99
2022-08-19T17:24:58.278Z,31.49
2022-08-19T17:29:55.302Z,31.12
2022-08-19T17:34:53.803Z,31.29
2022-08-19T17:39:50.776Z,31.71
2022-08-19T17:44:50.695Z,32.15
2022-08-19T17:49:47.852Z,31.81
2022-08-19T17:54:44.884Z,32.44
2022-08-19T17:59:41.962Z,32.79
2022-08-19T18:04:39.638Z,33.44
2022-08-19T18:09:41.640Z,33.63
2022-08-19T18:14:40.621Z,34.54
2022-08-19T18:19:41.814Z,34.83
2022-08-19T18:24:40.508Z,34.80
2022-08-19T18:29:37.661Z,35.15
2022-08-19T18:34:36.664Z,34.65
2022-08-19T18:39:51.530Z,35.19
2022-08-19T18:45:07.350Z,34.62
2022-08-19T18:50:12.401Z,35.08
2022-08-19T18:55:11.139Z,35.19
2022-08-19T19:00:10.630Z,35.85
2022-08-19T19:05:08.023Z,36.12
2022-08-19T19:10:10.127Z,35.81
2022-08-19T19:15:09.033Z,36.03
2022-08-19T19:20:08.555Z,35.86
2022-08-19T19:25:08.329Z,35.85
2022-08-19T19:30:05.532Z,36.35
2022-08-19T19:35:02.426Z,36.58
2022-08-19T19:39:59.993Z,36.68
2022-08-19T19:44:59.984Z,36.19
2022-08-19T19:55:17.631Z,36.10
2022-08-19T20:00:16.043Z,36.22
2022-08-19T20:05:14.972Z,36.73
2022-08-19T20:10:12.585Z,36.77
2022-08-19T20:15:10.194Z,36.93
2022-08-19T20:20:07.492Z,37.25
2022-08-19T20:25:05.833Z,36.63
2022-08-19T20:30:04.954Z,36.27
2022-08-19T20:35:05.567Z,36.15
2022-08-19T20:40:02.748Z,36.02
2022-08-19T20:45:01.634Z,36.28
2022-08-19T20:49:58.491Z,36.44
2022-08-19T20:54:55.903Z,36.84
2022-08-19T20:59:52.613Z,37.18
2022-08-19T21:04:49.297Z,37.39
2022-08-19T21:09:45.935Z,37.98
2022-08-19T21:14:44.023Z,38.06
2022-08-19T21:19:40.918Z,37.78
2022-08-19T21:24:37.576Z,37.86
2022-08-19T21:29:36.890Z,37.76
2022-08-19T21:34:34.288Z,37.77
2022-08-19T21:39:30.973Z,37.86
2022-08-19T21:44:27.729Z,38.00
2022-08-19T21:49:24.489Z,37.62
2022-08-19T21:54:21.860Z,37.86
2022-08-19T21:59:18.639Z,40.12
2022-08-19T22:04:15.401Z,40.48
2022-08-19T22:09:12.282Z,39.23
2022-08-19T22:14:09.940Z,41.79
2022-08-19T22:19:07.555Z,42.04
2022-08-19T22:24:06.914Z,42.40
2022-08-19T22:29:03.882Z,43.48
2022-08-19T22:34:03.233Z,43.21
2022-08-19T22:39:00.263Z,42.88
2022-08-19T22:43:57.530Z,40.33
2022-08-19T22:49:00.919Z,39.38
2022-08-19T22:53:59.198Z,38.86
2022-08-19T22:58:56.027Z,40.36
2022-08-19T23:03:53.061Z,43.24
2022-08-19T23:08:50.043Z,44.22
2022-08-19T23:13:47.721Z,44.13
2022-08-19T23:18:45.256Z,44.12
2022-08-19T23:23:42.013Z,43.91
2022-08-19T23:28:56.969Z,44.53
2022-08-19T23:33:54.885Z,44.92
2022-08-19T23:38:51.888Z,45.75
2022-08-19T23:43:50.743Z,44.95
2022-08-19T23:48:48.364Z,44.51
2022-08-19T23:53:45.783Z,43.26
2022-08-19T23:58:42.625Z,40.96
